logo
App data

A Study in Steampunk: Choice by Gaslight

Steam-powered mechs meet forbidden sorcery in this interactive steampunk novel, inspired by Sherlock Holmes, Dracula, Jekyll & Hyde, and Jack the Ripper!
Store | Hub | SteamDB | Site
Developer: Hosted Games Publisher: Hosted Games
Genre: Indie, RPG
Languages: English
Tags: Indie (27), RPG (25), Steampunk (22), Choose Your Own Adventure (21), Text-Based (13), Interactive Fiction (9)
Category: Single-player, Steam Achievements, Captions available, Steam Cloud
Release date: Nov 20, 2015
Price: $3.99
Old userscore: 96% Owners: 0 .. 20,000
Followers: 802
Peak concurrent players yesterday: 2

Steam Spy is still in beta, so expect major bugs.

Owners data:

Access restricted.

This feature is only available to users with special access rights. Sorry.

If you want to proceed, you need to register or log in first and then back Steam Spy on Patreon. Look for Indie or Pro pledge.

Don't forget to use the same email as on Steam Spy!

If you've recently backed Steam Spy on Patreon, please note, that it might take around 15 minutes for your access rights to sync. In most cases you'll need to re-login on Steam Spy too.

Audience in 2 weeks:

Access restricted.

This feature is only available to users with special access rights. Sorry.

If you want to proceed, you need to register or log in first and then back Steam Spy on Patreon. Look for Indie or Pro pledge.

Don't forget to use the same email as on Steam Spy!

If you've recently backed Steam Spy on Patreon, please note, that it might take around 15 minutes for your access rights to sync. In most cases you'll need to re-login on Steam Spy too.

Peak daily concurrent players:

CCU data courtesy of SteamDB. Used with permission.

Hourly concurrent players:

Daily Twitch stats:

Hourly Twitch stats:

Followers over time

Access restricted.

This feature is only available to users with special access rights. Sorry.

If you want to proceed, you need to register or log in first and then back Steam Spy on Patreon. Look for Indie or Pro pledge.

Don't forget to use the same email as on Steam Spy!

If you've recently backed Steam Spy on Patreon, please note, that it might take around 15 minutes for your access rights to sync. In most cases you'll need to re-login on Steam Spy too.

Views for top 50 videos on YouTube for this game:

Games similar to this one:

# Game Release date
Price
Score rank
(Userscore / Metascore)
Owners
Players
Playtime (Median)
1 Critter Crunch Sep 11, 2012 $6.99N/A (N/A)20,000 .. 50,0000%00:00 (00:00)
2 BIT.TRIP BEAT Nov 2, 2010 $5.99N/A (N/A)200,000 .. 500,0000%00:00 (00:00)
3 Super Splatters Jun 26, 2013 N/AN/A (N/A/73%)50,000 .. 100,0000%00:00 (00:00)
4 Titan Attacks! Feb 3, 2012 $9.99N/A (N/A)50,000 .. 100,0000%00:00 (00:00)
5 BIT.TRIP CORE Oct 2, 2012 $9.99N/A (N/A)20,000 .. 50,0000%00:00 (00:00)
6 BIT.TRIP VOID Dec 19, 2012 $9.99N/A (N/A)20,000 .. 50,0000%00:00 (00:00)
7 Tales From Space: Mutant Blobs Attack Aug 15, 2012 $9.99N/A (N/A/83%)100,000 .. 200,0000%00:00 (00:00)
8 Unmechanical Aug 8, 2012 $9.99N/A (N/A/74%)100,000 .. 200,0000%00:00 (00:00)
9 Sugar Cube: Bittersweet Factory Nov 7, 2012 $6.99N/A (N/A)20,000 .. 50,0000%00:00 (00:00)
10 Party of Sin Dec 13, 2012 $5.99N/A (N/A)50,000 .. 100,0000%00:00 (00:00)
11 Home Jun 1, 2012 $4.99N/A (N/A/69%)200,000 .. 500,0000%00:00 (00:00)
12 Ultratron Mar 18, 2013 $9.99N/A (N/A)100,000 .. 200,0000%00:00 (00:00)
13 Cargo Commander Nov 1, 2012 $2.99N/A (N/A)100,000 .. 200,0000%00:00 (00:00)
14 Puddle Nov 9, 2012 $7.99N/A (N/A)50,000 .. 100,0000%00:00 (00:00)
15 Retro/Grade Mar 20, 2013 $9.99N/A (N/A)50,000 .. 100,0000%00:00 (00:00)
16 Papo & Yo Apr 18, 2013 $14.99N/A (N/A/70%)200,000 .. 500,0000%00:00 (00:00)
17 Bad Hotel Oct 16, 2013 $4.99N/A (N/A)50,000 .. 100,0000%00:00 (00:00)
18 Godus Jul 1, 1989 $14.99N/A (N/A)200,000 .. 500,0000%00:00 (00:00)
19 Wake Jul 1, 1989 $4.99N/A (N/A)0 .. 20,0000%00:00 (00:00)
20 Zack Zero Apr 29, 2013 $2.99N/A (N/A)50,000 .. 100,0000%00:00 (00:00)
21 Element4l May 24, 2013 $8.99N/A (N/A/77%)50,000 .. 100,0000%00:00 (00:00)
22 Super Puzzle Platformer Deluxe May 24, 2013 $7.99N/A (N/A)20,000 .. 50,0000%00:00 (00:00)
23 Poöf Nov 8, 2013 $6.99N/A (N/A)20,000 .. 50,0000%00:00 (00:00)
24 The Novelist Dec 10, 2013 $4.99N/A (N/A/66%)100,000 .. 200,0000%00:00 (00:00)
25 Knytt Underground Oct 25, 2013 $6.99N/A (N/A)50,000 .. 100,0000%00:00 (00:00)
26 Escape Goat Jun 14, 2012 $4.99N/A (N/A)20,000 .. 50,0000%00:00 (00:00)
27 Solar Flux Oct 24, 2013 $9.99N/A (N/A)100,000 .. 200,0000%00:00 (00:00)
28 FOTONICA Nov 6, 2014 $14.99N/A (N/A/71%)50,000 .. 100,0000%00:00 (00:00)
29 Gentlemen! Nov 5, 2013 $4.99N/A (N/A)20,000 .. 50,0000%00:00 (00:00)
30 Survivor Squad Nov 8, 2013 $2.99N/A (N/A)100,000 .. 200,0000%00:00 (00:00)
31 Montague's Mount Nov 19, 2013 $4.99N/A (N/A/39%)20,000 .. 50,0000%00:00 (00:00)
32 Ballpoint Universe - Infinite Dec 17, 2013 $3.99N/A (N/A)50,000 .. 100,0000%00:00 (00:00)
33 STARWHAL Sep 29, 2014 $11.99N/A (N/A)50,000 .. 100,0000%00:00 (00:00)
34 Full Bore May 6, 2014 $14.99N/A (N/A/72%)20,000 .. 50,0000%00:00 (00:00)
35 A-Men Jan 25, 2014 $9.99N/A (N/A)0 .. 20,0000%00:00 (00:00)
36 Imagine Me Mar 14, 2014 $2.99N/A (N/A)20,000 .. 50,0000%00:00 (00:00)
37 Procyon Feb 26, 2014 $3.99N/A (N/A)20,000 .. 50,0000%00:00 (00:00)
38 Jones On Fire Mar 14, 2013 $2.99N/A (N/A)50,000 .. 100,0000%00:00 (00:00)
39 10 Second Ninja Mar 5, 2014 $1.99N/A (N/A/72%)50,000 .. 100,0000%00:00 (00:00)
40 Labyrinthine Dreams May 26, 2015 $1.99N/A (N/A)20,000 .. 50,0000%00:00 (00:00)
41 Pulstar Jun 11, 2014 $1.99N/A (N/A)20,000 .. 50,0000%00:00 (00:00)
42 Imagine Earth May 25, 2021 $24.99N/A (N/A)50,000 .. 100,0000%00:00 (00:00)
43 T.E.C. 3001 Apr 10, 2014 N/AN/A (N/A)20,000 .. 50,0000%00:00 (00:00)
44 Munin Jun 10, 2014 $4.99N/A (N/A/68%)200,000 .. 500,0000%00:00 (00:00)
45 Rabbit Hole 3D: Steam Edition Apr 25, 2014 $2.99N/A (N/A)50,000 .. 100,0000%00:00 (00:00)
46 ReignMaker Apr 16, 2014 $14.99N/A (N/A)50,000 .. 100,0000%00:00 (00:00)
47 Volt Apr 14, 2014 $0.99N/A (N/A)100,000 .. 200,0000%00:00 (00:00)
48 Slip Apr 28, 2014 $0.99N/A (N/A)20,000 .. 50,0000%00:00 (00:00)
49 Vitrum Sep 25, 2012 $1.99N/A (N/A)0 .. 20,0000%00:00 (00:00)
50 Three Dead Zed Jul 7, 2014 $5.99N/A (N/A)50,000 .. 100,0000%00:00 (00:00)
51 Uriel's Chasm Sep 12, 2014 $4.99N/A (N/A)200,000 .. 500,0000%00:00 (00:00)
52 Cosmochoria Apr 27, 2015 $9.99N/A (N/A)20,000 .. 50,0000%00:00 (00:00)
53 Arson and Plunder: Unleashed Sep 25, 2015 $4.99N/A (N/A)20,000 .. 50,0000%00:00 (00:00)
54 Stranded May 20, 2014 $0.99N/A (N/A)20,000 .. 50,0000%00:00 (00:00)
55 TownCraft Feb 25, 2015 $9.99N/A (N/A)0 .. 20,0000%00:00 (00:00)
56 Dreaming Sarah Mar 12, 2015 $5.99N/A (N/A)0 .. 20,0000%00:00 (00:00)
57 Frederic: Resurrection of Music May 16, 2014 $2.99N/A (N/A)100,000 .. 200,0000%00:00 (00:00)
58 Frederic: Evil Strikes Back May 23, 2014 $7.99N/A (N/A)100,000 .. 200,0000%00:00 (00:00)
59 Rhythm Destruction Jun 16, 2014 $4.99N/A (N/A)50,000 .. 100,0000%00:00 (00:00)
60 Boson X Sep 15, 2014 $2.99N/A (N/A)200,000 .. 500,0000%00:00 (00:00)
61 TRISTOY Jan 15, 2015 $1.39N/A (N/A/49%)20,000 .. 50,0000%00:00 (00:00)
62 Echo of the Wilds Jun 10, 2014 $6.99N/A (N/A)0 .. 20,0000%00:00 (00:00)
63 Oblitus Feb 27, 2015 $14.99N/A (N/A/69%)20,000 .. 50,0000%00:00 (00:00)
64 Iron Fisticle Sep 16, 2014 $8.99N/A (N/A)20,000 .. 50,0000%00:00 (00:00)
65 Fancy Skulls Jun 16, 2014 $8.99N/A (N/A)20,000 .. 50,0000%00:00 (00:00)
66 Curses 'N Chaos Aug 18, 2015 $9.99N/A (N/A)20,000 .. 50,0000%00:00 (00:00)
67 Back to Bed Aug 6, 2014 $5.99N/A (N/A)1,000,000 .. 2,000,0000%00:00 (00:00)
68 NEON STRUCT May 20, 2015 $17.99N/A (N/A/62%)50,000 .. 100,0000%00:00 (00:00)
69 Heroes Rise: HeroFall Jul 11, 2014 $3.99N/A (N/A)0 .. 20,0000%00:00 (00:00)
70 OTTTD Aug 6, 2014 $7.99N/A (N/A)0 .. 20,0000%00:00 (00:00)
71 The Waste Land Sep 16, 2014 $9.99N/A (N/A)0 .. 20,0000%00:00 (00:00)
72 Velocibox Sep 8, 2014 $4.99N/A (N/A)50,000 .. 100,0000%00:00 (00:00)
73 Squishy the Suicidal Pig Oct 23, 2014 $5.99N/A (N/A)200,000 .. 500,0003.45%00:18 (00:06)
74 Great Permutator Sep 15, 2014 $6.99N/A (N/A)20,000 .. 50,0000%00:00 (00:00)
75 Chariot Nov 12, 2014 $1.49N/A (N/A/76%)100,000 .. 200,0000%00:00 (00:00)
76 Ninja Pizza Girl Sep 30, 2015 $6.99N/A (N/A/82%)50,000 .. 100,0000%00:00 (00:00)
77 iO Dec 5, 2014 $4.99N/A (N/A)20,000 .. 50,0000%00:00 (00:00)
78 Horizon Shift May 29, 2015 $4.99N/A (N/A)100,000 .. 200,0000%00:00 (00:00)
79 Super Life of Pixel Dec 20, 2018 $9.99N/A (N/A)20,000 .. 50,0000%00:00 (00:00)
80 Traverser Jul 9, 2015 $14.99N/A (N/A/61%)0 .. 20,0000%00:00 (00:00)
81 The Deer God Feb 27, 2015 $14.99N/A (N/A/59%)20,000 .. 50,0000%00:00 (00:00)
82 Pix the Cat Jan 29, 2015 $9.99N/A (N/A/77%)50,000 .. 100,0000%00:00 (00:00)
83 Tulpa Jan 29, 2015 $2.99N/A (N/A)50,000 .. 100,0000%00:00 (00:00)
84 Phoenix Force Nov 13, 2014 $0.99N/A (N/A)100,000 .. 200,0000%00:00 (00:00)
85 Marvin's Mittens Dec 17, 2014 $5.99N/A (N/A)20,000 .. 50,0000%00:00 (00:00)
86 Dwarf Tower May 5, 2014 $0.99N/A (N/A)20,000 .. 50,0000%00:00 (00:00)
87 Sky Mercenaries Dec 16, 2014 $9.99N/A (N/A)20,000 .. 50,0000%00:00 (00:00)
88 Bloody Streets Mar 12, 2015 $4.99N/A (N/A)20,000 .. 50,0000%00:00 (00:00)
89 Chronicles of a Dark Lord: Episode 1 Tides of Fate Complete Dec 19, 2014 N/AN/A (N/A)50,000 .. 100,0000%00:00 (00:00)
90 Four Sided Fantasy Aug 30, 2016 $9.99N/A (N/A)20,000 .. 50,0000%00:00 (00:00)
91 Bermuda Mar 17, 2015 $2.99N/A (N/A)20,000 .. 50,0000%00:00 (00:00)
92 Ukrainian Ninja Dec 23, 2014 FreeN/A (N/A)20,000 .. 50,0000%00:00 (00:00)
93 TIMEframe Jul 7, 2015 $5.99N/A (N/A)50,000 .. 100,0000%00:00 (00:00)
94 Tomb of Tyrants Jun 25, 2015 $7.99N/A (N/A)20,000 .. 50,0000%00:00 (00:00)
95 On A Roll 3D Feb 12, 2015 $3.99N/A (N/A)50,000 .. 100,0000%00:00 (00:00)
96 Glorkian Warrior: The Trials Of Glork Mar 24, 2015 $3.99N/A (N/A)20,000 .. 50,0000%00:00 (00:00)
97 It came from space and ate our brains Mar 19, 2015 $14.99N/A (N/A)200,000 .. 500,0000%00:00 (00:00)
98 Disillusions Manga Horror Apr 6, 2013 $0.99N/A (N/A)20,000 .. 50,0000%00:00 (00:00)
99 Three Fourths Home: Extended Edition Mar 20, 2015 $4.99N/A (N/A/77%)20,000 .. 50,0000%00:00 (00:00)
100 The Cursed Forest Feb 26, 2019 $13.99N/A (N/A)20,000 .. 50,0000%00:00 (00:00)
101 Rats - Time is running out! Aug 19, 2015 N/AN/A (N/A)50,000 .. 100,0000%00:00 (00:00)
102 Starship Traveller Mar 11, 2015 $4.99N/A (N/A)0 .. 20,0000%00:00 (00:00)
103 BlastZone 2 Feb 19, 2015 $9.99N/A (N/A)0 .. 20,0000%00:00 (00:00)
104 Scribble Space Jun 1, 2015 $1.99N/A (N/A)20,000 .. 50,0000%00:00 (00:00)
105 Porcunipine May 21, 2015 $9.99N/A (N/A)20,000 .. 50,0000%00:00 (00:00)
106 Bunker - The Underground Game May 21, 2015 $3.99N/A (N/A/70%)0 .. 20,0000%00:00 (00:00)
107 NEO AQUARIUM - The King of Crustaceans - Jun 8, 2015 $8.99N/A (N/A)50,000 .. 100,0000%00:00 (00:00)
108 Reign of Bullets Aug 19, 2015 $9.99N/A (N/A)0 .. 20,0000%00:00 (00:00)
109 Beyond Eyes Aug 11, 2015 $14.99N/A (N/A/60%)100,000 .. 200,0000%00:00 (00:00)
110 Orbit HD Mar 18, 2015 $1.99N/A (N/A)20,000 .. 50,0000%00:00 (00:00)
111 Big Action Mega Fight! Jan 12, 2016 $1.99N/A (N/A)20,000 .. 50,0000%00:00 (00:00)
112 Gryphon Knight Epic Aug 20, 2015 $12.99N/A (N/A/55%)20,000 .. 50,0000%00:00 (00:00)
113 Canabalt Apr 30, 2015 $2.99N/A (N/A)20,000 .. 50,0000%00:00 (00:00)
114 Hare In The Hat Apr 1, 2015 $1.99N/A (N/A)50,000 .. 100,0000%00:00 (00:00)
115 Spellsworn Mar 13, 2018 FreeN/A (N/A)200,000 .. 500,0000%00:00 (00:00)
116 Luna Sky Oct 2, 2015 $12.99N/A (N/A)50,000 .. 100,0000%00:00 (00:00)
117 Interstellar Rift Sep 24, 2020 $19.99N/A (N/A)50,000 .. 100,0000%00:00 (00:00)
118 Transcendence Jul 24, 2015 $8.99N/A (N/A)0 .. 20,0000%00:00 (00:00)
119 BRAWL Aug 13, 2015 $14.99N/A (N/A)0 .. 20,0000%00:00 (00:00)
120 Broken Bots Jun 7, 2016 $6.99N/A (N/A)0 .. 20,0000%00:00 (00:00)
121 Vernon's Legacy Sep 23, 2016 $11.99N/A (N/A)0 .. 20,0000%00:00 (00:00)
122 Dustbowl May 18, 2015 $8.99N/A (N/A)0 .. 20,0000%00:00 (00:00)
123 Pixel Star May 22, 2015 $2.99N/A (N/A)20,000 .. 50,0000%00:00 (00:00)
124 Polyball Dec 1, 2017 $14.99N/A (N/A)100,000 .. 200,0000.6%00:01 (00:00)
125 Mysterious Space May 15, 2015 $10N/A (N/A)0 .. 20,0000%00:00 (00:00)
126 Treeker: The Lost Glasses Remake May 13, 2015 $2.99N/A (N/A)20,000 .. 50,0000%00:00 (00:00)
127 Cosmophony Jul 9, 2015 $4.99N/A (N/A)0 .. 20,0000%00:00 (00:00)
128 Impossiball Aug 8, 2017 $0.99N/A (N/A)0 .. 20,0000%00:00 (00:00)
129 Pizza Express Jun 25, 2015 $6.99N/A (N/A)20,000 .. 50,0000%00:00 (00:00)
130 Football, Tactics & Glory Jun 1, 2018 $24.99N/A (N/A)200,000 .. 500,0000%00:00 (00:00)
131 The Adventures of Mr. Bobley Jun 30, 2015 $0.99N/A (N/A)100,000 .. 200,0000%00:00 (00:00)
132 Monument Jun 5, 2015 $1.99N/A (N/A)200,000 .. 500,0000%00:00 (00:00)
133 Sky Rogue Aug 24, 2017 $19.99N/A (N/A)50,000 .. 100,0000%00:00 (00:00)
134 Action Alien Jun 26, 2015 $4.99N/A (N/A)50,000 .. 100,0000%00:00 (00:00)
135 RETSNOM Jul 23, 2015 $4.99N/A (N/A)0 .. 20,0000%00:00 (00:00)
136 Dead In Bermuda Aug 27, 2015 $14.99N/A (N/A)20,000 .. 50,0000%00:00 (00:00)
137 Aviary Attorney Dec 21, 2015 $14.99N/A (N/A/77%)50,000 .. 100,0000%00:00 (00:00)
138 none Nov 4, 2015 N/AN/A (N/A)20,000 .. 50,0000%00:00 (00:00)
139 Super Trench Attack 2 Nov 6, 2015 $2.99N/A (N/A)0 .. 20,0000%00:00 (00:00)
140 A.I. Invasion Sep 30, 2015 $9.99N/A (N/A)0 .. 20,0000%00:00 (00:00)
141 Earth Overclocked Dec 4, 2015 $4.99N/A (N/A)20,000 .. 50,0000%00:00 (00:00)
142 Redemption: Eternal Quest Aug 28, 2015 $0.99N/A (N/A)100,000 .. 200,0000%00:00 (00:00)
143 Angry Arrows Aug 12, 2015 $4.99N/A (N/A)20,000 .. 50,0000%00:00 (00:00)
144 Void Invaders Aug 14, 2015 $2.99N/A (N/A)20,000 .. 50,0000%00:00 (00:00)
145 Blaster Shooter GunGuy! Aug 10, 2015 $1.99N/A (N/A)100,000 .. 200,0000%00:00 (00:00)
146 Wild Island Quest Sep 4, 2015 $0.49N/A (N/A)50,000 .. 100,0000%00:00 (00:00)
147 Shmadow Nov 3, 2015 $1.99N/A (N/A)20,000 .. 50,0000%00:00 (00:00)
148 Moonbase 332 May 20, 2015 $4.99N/A (N/A)20,000 .. 50,0000%00:00 (00:00)
149 Dragon's Wake Dec 10, 2015 $3.99N/A (N/A)0 .. 20,0000%00:00 (00:00)
150 Kitchen Simulator 2015 Sep 4, 2015 $0.99N/A (N/A)20,000 .. 50,0000%00:00 (00:00)
151 ChargeShot Sep 18, 2015 $9.99N/A (N/A)20,000 .. 50,0000%00:00 (00:00)
152 Press X to Not Die Oct 6, 2017 $0.89N/A (N/A)100,000 .. 200,0000%00:00 (00:00)
153 Jet Set Knights Jan 1, 2016 $9.99N/A (N/A)20,000 .. 50,0000%00:00 (00:00)
154 1,000 Heads Among the Trees Dec 11, 2015 $4.99N/A (N/A)100,000 .. 200,0000%00:00 (00:00)
155 Dream Factory Nov 2, 2015 $9.99N/A (N/A)20,000 .. 50,0000%00:00 (00:00)
156 Timber and Stone Oct 20, 2015 $4.99N/A (N/A)20,000 .. 50,0000%00:00 (00:00)
157 The Purring Quest Nov 12, 2015 $9.99N/A (N/A)100,000 .. 200,0000%00:00 (00:00)
158 Perraw - FPS Clone War Alpha Jan 29, 2016 $0.99N/A (N/A)20,000 .. 50,0000%00:00 (00:00)
159 Morphine Oct 26, 2015 $2.99N/A (N/A)20,000 .. 50,0000%00:00 (00:00)
160 Days Under Custody Nov 23, 2015 $4.99N/A (N/A)20,000 .. 50,0000%00:00 (00:00)
161 Planet Diver Nov 30, 2015 $3.99N/A (N/A)0 .. 20,0000%00:00 (00:00)
162 Cosmic Leap Mar 17, 2016 $0.99N/A (N/A)20,000 .. 50,0000%00:00 (00:00)
163 Godus Wars Feb 3, 2016 $14.99N/A (N/A)50,000 .. 100,0000%00:00 (00:00)
164 Bell Ringer Mar 6, 2016 $6.99N/A (N/A)200,000 .. 500,0000%00:00 (00:00)
165 Space Moth DX Jan 22, 2016 $4.99N/A (N/A)20,000 .. 50,0000%00:00 (00:00)
166 PERFECT ANGLE: The puzzle game based on optical illusions Dec 22, 2015 $9.99N/A (N/A)50,000 .. 100,0000%00:00 (00:00)
167 TurnOn Jun 1, 2016 $14.99N/A (N/A/67%)20,000 .. 50,0000%00:00 (00:00)
168 Tiny Guardians Mar 24, 2016 $9.99N/A (N/A)0 .. 20,0000%00:00 (00:00)
169 Doodle Kingdom Jun 9, 2016 $8.99N/A (N/A)50,000 .. 100,0000%00:00 (00:00)
170 Rencounter Nov 4, 2016 $5.99N/A (N/A)50,000 .. 100,0000%00:00 (00:00)
171 Flobe Jan 23, 2016 $0.99N/A (N/A)0 .. 20,0000%00:00 (00:00)
172 10 Second Ninja X Jul 19, 2016 $9.99N/A (N/A)200,000 .. 500,0000%00:00 (00:00)
173 Empire of the Gods May 13, 2008 $1.99N/A (N/A)50,000 .. 100,0000%00:00 (00:00)
174 Mindless Running Feb 22, 2016 $0.99N/A (N/A)20,000 .. 50,0000%00:00 (00:00)
175 Mimpi Dreams Mar 22, 2016 FreeN/A (N/A)20,000 .. 50,0000%00:00 (00:00)
176 Bunker Punks May 28, 2018 $14.99N/A (N/A)0 .. 20,0000%00:00 (00:00)
177 Amigdala Mar 28, 2016 $5.99N/A (N/A)20,000 .. 50,0000%00:00 (00:00)
178 Cube Land Arena Mar 29, 2016 $0.99N/A (N/A)50,000 .. 100,0000%00:00 (00:00)
179 Brute May 17, 2017 $6.99N/A (N/A)0 .. 20,0000%00:00 (00:00)
180 Hero Quest: Tower Conflict Apr 13, 2016 $0.99N/A (N/A)200,000 .. 500,0000%00:00 (00:00)
181 CrazyCars3D Mar 28, 2016 $2.99N/A (N/A)50,000 .. 100,0000%00:00 (00:00)
182 MetaTron Dec 19, 2016 N/AN/A (N/A)0 .. 20,0000%00:00 (00:00)
183 Mainlining Jan 26, 2017 $12.99N/A (N/A/73%)50,000 .. 100,0000%00:00 (00:00)
184 OPUS: The Day We Found Earth Apr 21, 2016 $8.99N/A (N/A)100,000 .. 200,0000%00:00 (00:00)
185 Wrath of Anna Apr 2, 2018 $19.99N/A (N/A)50,000 .. 100,0000%00:00 (00:00)
186 Snooker Nation Championship Apr 27, 2016 $3.99N/A (N/A)20,000 .. 50,0000%00:00 (00:00)
187 Dashy Square Apr 26, 2016 $2.99N/A (N/A)0 .. 20,0000%00:00 (00:00)
188 Moonstone Tavern - A Fantasy Tavern Sim! May 13, 2016 $7.99N/A (N/A)20,000 .. 50,0000%00:00 (00:00)
189 NORTH Apr 27, 2016 $0.59N/A (N/A)200,000 .. 500,0000%00:00 (00:00)
190 Deathwave Jun 9, 2016 $4.99N/A (N/A)0 .. 20,0000%00:00 (00:00)
191 The Nest Jun 14, 2016 FreeN/A (N/A)0 .. 20,0000%00:00 (00:00)
192 Scanner Sombre Apr 26, 2017 $5.99N/A (N/A/67%)100,000 .. 200,0000%00:00 (00:00)
193 ORCS May 20, 2016 $1.99N/A (N/A)20,000 .. 50,0000%00:00 (00:00)
194 Star Drifter Jun 1, 2016 $0.99N/A (N/A)200,000 .. 500,0000%00:00 (00:00)
195 Call Of The Mighty Warriors Jun 2, 2016 $0.99N/A (N/A)100,000 .. 200,0000%00:00 (00:00)
196 Karma Miwa Aug 12, 2016 $0.99N/A (N/A)20,000 .. 50,0000%00:00 (00:00)
197 Super Duper Party Pooper Jun 6, 2016 $0.99N/A (N/A/40%)100,000 .. 200,0000%00:00 (00:00)
198 DashBored Jun 13, 2016 $4.99N/A (N/A)20,000 .. 50,0000%00:00 (00:00)
199 Robot Legions Reborn Jul 19, 2016 $1.19N/A (N/A)20,000 .. 50,0000%00:00 (00:00)
200 Bohemian Killing Jul 21, 2016 $12.99N/A (N/A/55%)20,000 .. 50,0000%00:00 (00:00)
201 The Dark Legions Apr 1, 2004 $1.99N/A (N/A)0 .. 20,0000%00:00 (00:00)
202 You Deserve Aug 19, 2016 $0.99N/A (N/A)20,000 .. 50,0000%00:00 (00:00)
203 Dinosaur Forest May 17, 2017 $0.49N/A (N/A)50,000 .. 100,00012.5%01:04 (00:21)
204 Showdown Adventure Sep 21, 2016 N/AN/A (N/A)20,000 .. 50,0000%00:00 (00:00)
205 Joana's Life Sep 1, 2016 $5.99N/A (N/A)50,000 .. 100,0000%00:00 (00:00)
206 Intensive Exposure Sep 6, 2016 $4.99N/A (N/A)0 .. 20,0000%00:00 (00:00)
207 It Comes Around - A Kinetic Novel Sep 29, 2016 $2.99N/A (N/A)20,000 .. 50,0000%00:00 (00:00)
208 Starship Annihilator Sep 2, 2016 $0.99N/A (N/A)20,000 .. 50,0000%00:00 (00:00)
209 The Gleam: VR Escape the Room Oct 14, 2016 $3.99N/A (N/A)100,000 .. 200,0000%00:00 (00:00)
210 mr.President Prologue Episode Sep 20, 2016 $0.99N/A (N/A)20,000 .. 50,0000%00:00 (00:00)
211 Pixel Gladiator Sep 8, 2017 $4.99N/A (N/A)20,000 .. 50,0000%00:00 (00:00)
212 Snake Pass Mar 28, 2017 $19.99N/A (N/A/71%)200,000 .. 500,0000%00:00 (00:00)
213 Wayout Nov 4, 2016 $0.99N/A (N/A)50,000 .. 100,0000%00:00 (00:00)
214 Zolg Dec 2, 2016 $0.99N/A (N/A)50,000 .. 100,0000%00:00 (00:00)
215 Witch It Oct 22, 2020 $19.99N/A (N/A)200,000 .. 500,0003.28%01:30 (00:31)
216 Introvert Quest Mar 15, 2017 $2.99N/A (N/A)100,000 .. 200,0000%00:00 (00:00)
217 Distant Space Dec 20, 2016 $0.49N/A (N/A)100,000 .. 200,0000%00:00 (00:00)
218 Child Phobia: Nightcoming Fears Dec 20, 2016 $1.99N/A (N/A)20,000 .. 50,0000%00:00 (00:00)
219 Mistwood Heroes Dec 30, 2016 $0.99N/A (N/A)20,000 .. 50,0000%00:00 (00:00)
220 Three Kingdoms The Last Warlord Feb 4, 2021 $19.99N/A (N/A)100,000 .. 200,0000%00:00 (00:00)
221 GORN Jul 18, 2019 $12.99N/A (N/A/85%)200,000 .. 500,0000%00:00 (00:00)
222 Open Sorcery Feb 22, 2017 $3.99N/A (N/A)0 .. 20,0000%00:00 (00:00)
223 Guns of Icarus Alliance Mar 31, 2017 $4.99N/A (N/A)100,000 .. 200,0000%00:00 (00:00)
224 The Archotek Project Apr 28, 2017 $0.99N/A (N/A)200,000 .. 500,0000%00:00 (00:00)

Tags over time:

Access restricted.

This feature is only available to users with special access rights. Sorry.

If you want to proceed, you need to register or log in first and then back Steam Spy on Patreon. Look for Indie or Pro pledge.

Don't forget to use the same email as on Steam Spy!

If you've recently backed Steam Spy on Patreon, please note, that it might take around 15 minutes for your access rights to sync. In most cases you'll need to re-login on Steam Spy too.

Owners of this game also own:

Access restricted.

This feature is only available to users with special access rights. Sorry.

If you want to proceed, you need to register or log in first and then back Steam Spy on Patreon. Look for Indie or Pro pledge.

Don't forget to use the same email as on Steam Spy!

If you've recently backed Steam Spy on Patreon, please note, that it might take around 15 minutes for your access rights to sync. In most cases you'll need to re-login on Steam Spy too.

Playtime distribution:

Access restricted.

This feature is only available to users with special access rights. Sorry.

If you want to proceed, you need to register or log in first and then back Steam Spy on Patreon. Look for Indie or Pro pledge.

Don't forget to use the same email as on Steam Spy!

If you've recently backed Steam Spy on Patreon, please note, that it might take around 15 minutes for your access rights to sync. In most cases you'll need to re-login on Steam Spy too.

Playtime (2 weeks):

Access restricted.

This feature is only available to users with special access rights. Sorry.

If you want to proceed, you need to register or log in first and then back Steam Spy on Patreon. Look for Indie or Pro pledge.

Don't forget to use the same email as on Steam Spy!

If you've recently backed Steam Spy on Patreon, please note, that it might take around 15 minutes for your access rights to sync. In most cases you'll need to re-login on Steam Spy too.

User reviews:

Login required.

Please register or log in to see this information.